createdAt,value
2018-07-27T00:02:00.787Z,1.73
2018-07-27T00:05:03.239Z,1.63
2018-07-27T00:08:05.812Z,1.70
2018-07-27T00:11:08.481Z,1.60
2018-07-27T00:14:10.980Z,1.97
2018-07-27T00:17:13.485Z,1.80
2018-07-27T00:20:15.934Z,1.57
2018-07-27T00:23:18.558Z,2.50
2018-07-27T00:26:21.193Z,1.80
2018-07-27T00:29:23.645Z,1.80
2018-07-27T00:32:26.213Z,1.50
2018-07-27T00:35:28.693Z,1.83
2018-07-27T00:38:31.158Z,1.90
2018-07-27T00:41:33.637Z,1.87
2018-07-27T00:44:36.105Z,2.00
2018-07-27T00:47:38.535Z,1.90
2018-07-27T00:50:41.049Z,2.03
2018-07-27T00:53:43.449Z,1.90
2018-07-27T00:56:45.986Z,2.10
2018-07-27T00:59:48.362Z,1.53
2018-07-27T01:02:57.349Z,2.00
2018-07-27T01:05:59.848Z,2.20
2018-07-27T01:09:02.375Z,1.60
2018-07-27T01:12:04.853Z,2.13
2018-07-27T01:15:07.394Z,1.70
2018-07-27T01:18:09.785Z,1.80
2018-07-27T01:21:12.194Z,1.83
2018-07-27T01:24:14.637Z,1.67
2018-07-27T01:27:16.995Z,1.80
2018-07-27T01:30:19.383Z,2.00
2018-07-27T01:33:21.835Z,1.70
2018-07-27T01:36:24.273Z,2.10
2018-07-27T01:39:26.848Z,2.03
2018-07-27T01:42:29.193Z,2.10
2018-07-27T01:45:31.534Z,1.80
2018-07-27T01:48:34.069Z,1.67
2018-07-27T01:51:36.585Z,2.03
2018-07-27T01:54:38.953Z,2.03
2018-07-27T01:57:41.429Z,2.03
2018-07-27T02:00:43.889Z,2.20
2018-07-27T02:03:46.380Z,2.13
2018-07-27T02:06:48.831Z,1.70
2018-07-27T02:09:51.342Z,2.17
2018-07-27T02:12:53.812Z,2.10
2018-07-27T02:15:56.284Z,2.27
2018-07-27T02:18:58.775Z,2.00
2018-07-27T02:22:01.287Z,1.87
2018-07-27T02:25:03.761Z,2.23
2018-07-27T02:28:06.198Z,2.17
2018-07-27T02:31:08.645Z,1.63
2018-07-27T02:34:11.015Z,2.23
2018-07-27T02:37:13.537Z,1.90
2018-07-27T02:40:15.947Z,2.13
2018-07-27T02:43:18.319Z,2.00
2018-07-27T02:46:20.740Z,2.00
2018-07-27T02:49:23.190Z,2.17
2018-07-27T02:52:25.690Z,1.70
2018-07-27T02:55:28.120Z,2.20
2018-07-27T02:58:30.515Z,2.37
2018-07-27T03:01:32.943Z,2.07
2018-07-27T03:04:35.364Z,1.97
2018-07-27T03:07:37.790Z,2.07
2018-07-27T03:10:40.413Z,2.50
2018-07-27T03:13:43.888Z,2.50
2018-07-27T03:16:46.255Z,2.33
2018-07-27T03:19:48.730Z,2.20
2018-07-27T03:22:51.212Z,2.40
2018-07-27T03:25:55.540Z,2.20
2018-07-27T03:28:57.902Z,2.40
2018-07-27T03:32:00.283Z,1.90
2018-07-27T03:35:02.709Z,2.10
2018-07-27T03:38:05.232Z,2.37
2018-07-27T03:41:09.129Z,1.80
2018-07-27T03:44:11.546Z,2.63
2018-07-27T03:47:13.894Z,2.07
2018-07-27T03:50:16.275Z,1.90
2018-07-27T03:53:18.665Z,2.57
2018-07-27T03:56:21.249Z,2.00
2018-07-27T03:59:23.958Z,2.30
2018-07-27T04:02:27.360Z,2.20
2018-07-27T04:05:29.812Z,2.37
2018-07-27T04:08:32.298Z,2.73
2018-07-27T04:11:35.622Z,2.47
2018-07-27T04:14:37.958Z,2.80
2018-07-27T04:17:44.917Z,2.00
2018-07-27T04:20:47.406Z,2.43
2018-07-27T04:23:49.805Z,2.67
2018-07-27T04:26:52.206Z,2.17
2018-07-27T04:29:54.539Z,2.03
2018-07-27T04:32:57.382Z,2.60
2018-07-27T04:35:59.785Z,2.57
2018-07-27T04:39:02.384Z,2.10
2018-07-27T04:42:04.841Z,2.30
2018-07-27T04:45:07.245Z,2.40
2018-07-27T04:48:09.793Z,2.43
2018-07-27T04:51:12.147Z,2.40
2018-07-27T04:54:14.615Z,2.43
2018-07-27T04:57:16.977Z,2.67
2018-07-27T05:00:19.479Z,3.13
2018-07-27T05:03:21.833Z,3.00
2018-07-27T05:06:24.331Z,2.80
2018-07-27T05:09:26.716Z,2.67
2018-07-27T05:12:29.114Z,2.70
2018-07-27T05:15:31.549Z,2.90
2018-07-27T05:18:33.919Z,3.40
2018-07-27T05:21:36.339Z,3.20
2018-07-27T05:24:39.715Z,3.40
2018-07-27T05:27:42.092Z,3.40
2018-07-27T05:30:44.482Z,3.70
2018-07-27T05:33:46.948Z,3.47
2018-07-27T05:36:49.432Z,3.67
2018-07-27T05:39:51.826Z,3.27
2018-07-27T05:42:54.368Z,3.30
2018-07-27T05:45:56.663Z,3.20
2018-07-27T05:48:59.021Z,3.60
2018-07-27T05:52:01.360Z,3.60
2018-07-27T05:55:03.737Z,3.90
2018-07-27T05:58:06.107Z,3.80
2018-07-27T06:01:08.945Z,3.43
2018-07-27T06:04:11.308Z,3.33
2018-07-27T06:07:14.258Z,4.07
2018-07-27T06:10:16.516Z,3.40
2018-07-27T06:13:18.932Z,3.97
2018-07-27T06:16:21.342Z,3.87
2018-07-27T06:19:23.733Z,4.20
2018-07-27T06:22:26.182Z,4.17
2018-07-27T06:25:28.732Z,4.53
2018-07-27T06:28:31.204Z,4.37
2018-07-27T06:31:33.936Z,4.63
2018-07-27T06:34:36.386Z,4.70
2018-07-27T06:37:38.814Z,4.23
2018-07-27T06:40:41.176Z,5.10
2018-07-27T06:43:43.597Z,4.57
2018-07-27T06:46:45.968Z,4.83
2018-07-27T06:49:48.374Z,5.30
2018-07-27T06:52:50.769Z,5.53
2018-07-27T06:55:53.354Z,5.17
2018-07-27T06:58:55.906Z,4.83
2018-07-27T07:01:58.370Z,4.57
2018-07-27T07:05:00.812Z,5.23
2018-07-27T07:08:03.176Z,5.03
2018-07-27T07:11:05.640Z,5.60
2018-07-27T07:14:08.514Z,5.17
2018-07-27T07:17:10.972Z,5.17
2018-07-27T07:20:13.469Z,5.37
2018-07-27T07:23:15.992Z,4.90
2018-07-27T07:26:19.195Z,5.33
2018-07-27T07:29:21.601Z,4.90
2018-07-27T07:32:24.129Z,5.10
2018-07-27T07:35:26.520Z,6.37
2018-07-27T07:38:28.922Z,5.83
2018-07-27T07:41:31.286Z,5.13
2018-07-27T07:44:33.622Z,4.87
2018-07-27T07:47:36.022Z,5.57
2018-07-27T07:50:39.624Z,5.17
2018-07-27T07:53:42.118Z,5.37
2018-07-27T07:56:44.535Z,5.53
2018-07-27T07:59:46.913Z,5.27
2018-07-27T08:02:49.313Z,5.30
2018-07-27T08:05:51.656Z,6.07
2018-07-27T08:08:54.585Z,5.33
2018-07-27T08:11:56.886Z,5.43
2018-07-27T08:14:59.252Z,6.00
2018-07-27T08:18:01.578Z,5.27
2018-07-27T08:21:04.096Z,4.93
2018-07-27T08:24:06.706Z,5.80
2018-07-27T08:27:09.117Z,5.73
2018-07-27T08:30:13.763Z,5.57
2018-07-27T08:33:16.183Z,5.27
2018-07-27T08:36:18.671Z,5.00
2018-07-27T08:39:22.360Z,5.23
2018-07-27T08:42:24.831Z,5.03
2018-07-27T08:45:27.356Z,5.50
2018-07-27T08:48:29.636Z,6.73
2018-07-27T08:54:40.346Z,5.37
2018-07-27T08:57:42.728Z,5.20
2018-07-27T09:00:50.892Z,5.23
2018-07-27T09:03:53.489Z,5.17
2018-07-27T09:06:55.872Z,5.37
2018-07-27T09:09:58.318Z,5.13
2018-07-27T09:13:00.729Z,5.20
2018-07-27T09:16:03.182Z,5.77
2018-07-27T09:19:05.742Z,5.70
2018-07-27T09:22:08.206Z,5.40
2018-07-27T09:25:10.927Z,4.53
2018-07-27T09:28:13.056Z,4.40
2018-07-27T09:31:15.510Z,4.43
2018-07-27T09:34:17.851Z,4.37
2018-07-27T09:37:20.106Z,4.83
2018-07-27T09:40:23.636Z,4.37
2018-07-27T09:43:25.977Z,4.70
2018-07-27T09:46:28.492Z,4.70
2018-07-27T09:49:30.927Z,4.73
2018-07-27T09:53:04.309Z,4.27
2018-07-27T09:56:06.988Z,4.50
2018-07-27T09:59:09.407Z,3.97
2018-07-27T10:02:11.818Z,4.43
2018-07-27T10:05:15.222Z,4.30
2018-07-27T10:08:17.549Z,4.53
2018-07-27T10:11:20.505Z,4.43
2018-07-27T10:14:23.135Z,4.03
2018-07-27T10:17:25.560Z,4.40
2018-07-27T10:20:28.954Z,3.93
2018-07-27T10:23:31.366Z,4.03
2018-07-27T10:26:33.789Z,4.67
2018-07-27T10:29:36.171Z,5.00
2018-07-27T10:32:38.688Z,4.87
2018-07-27T10:35:41.232Z,4.33
2018-07-27T10:38:43.764Z,4.30
2018-07-27T10:41:46.182Z,4.40
2018-07-27T10:44:49.316Z,4.33
2018-07-27T11:00:52.456Z,4.20
2018-07-27T11:10:19.490Z,4.37
2018-07-27T11:13:22.848Z,4.27
2018-07-27T11:27:29.097Z,4.70
2018-07-27T11:30:31.595Z,4.47
2018-07-27T11:33:33.962Z,3.90
2018-07-27T11:36:52.580Z,4.10
2018-07-27T11:39:55.402Z,4.23
2018-07-27T11:44:00.899Z,4.43
2018-07-27T11:47:03.539Z,4.07
2018-07-27T11:51:09.591Z,4.23
2018-07-27T11:54:14.630Z,3.87
2018-07-27T11:57:17.428Z,4.27
2018-07-27T12:00:19.930Z,4.30
2018-07-27T12:03:27.758Z,4.27
2018-07-27T12:06:30.362Z,4.30
2018-07-27T12:09:32.802Z,4.67
2018-07-27T12:12:35.348Z,3.83
2018-07-27T12:15:38.011Z,4.63
2018-07-27T12:18:40.387Z,4.43
